createdAt,value
2023-05-07T00:00:32.611Z,101727.59
2023-05-07T00:02:59.228Z,101727.75
2023-05-07T00:05:25.815Z,101728.75
2023-05-07T00:07:53.650Z,101724.50
2023-05-07T00:10:20.473Z,101727.22
2023-05-07T00:12:47.045Z,101727.38
2023-05-07T00:15:13.891Z,101724.81
2023-05-07T00:17:40.478Z,101726.69
2023-05-07T00:20:08.282Z,101724.13
2023-05-07T00:22:34.945Z,101725.97
2023-05-07T00:25:01.598Z,101720.56
2023-05-07T00:27:28.151Z,101716.31
2023-05-07T00:29:54.711Z,101721.72
2023-05-07T00:32:21.317Z,101728.97
2023-05-07T00:34:47.891Z,101733.53
2023-05-07T00:37:14.457Z,101718.53
2023-05-07T00:39:41.011Z,101726.75
2023-05-07T00:42:07.525Z,101721.53
2023-05-07T00:44:34.134Z,101720.69
2023-05-07T00:47:04.400Z,101725.25
2023-05-07T00:49:40.987Z,101722.69
2023-05-07T00:52:08.896Z,101727.25
2023-05-07T00:54:36.469Z,101730.97
2023-05-07T00:57:04.601Z,101727.41
2023-05-07T00:59:33.177Z,101729.28
2023-05-07T01:02:00.473Z,101724.00
2023-05-07T01:04:27.855Z,101725.88
2023-05-07T01:06:59.832Z,101726.03
2023-05-07T01:09:27.888Z,101727.00
2023-05-07T01:11:54.989Z,101729.72
2023-05-07T01:14:21.821Z,101719.94
2023-05-07T01:16:49.313Z,101722.81
2023-05-07T01:19:18.187Z,101722.94
2023-05-07T01:21:48.172Z,101717.72
2023-05-07T01:24:15.756Z,101712.31
2023-05-07T01:26:43.725Z,101709.78
2023-05-07T01:29:10.987Z,101708.91
2023-05-07T01:31:38.656Z,101706.38
2023-05-07T01:34:07.898Z,101707.38
2023-05-07T01:36:34.510Z,101703.84
2023-05-07T01:39:01.515Z,101701.28
2023-05-07T01:41:28.227Z,101709.56
2023-05-07T01:43:57.522Z,101706.84
2023-05-07T01:46:24.540Z,101702.47
2023-05-07T01:48:51.825Z,101693.53
2023-05-07T01:51:18.548Z,101695.34
2023-05-07T01:53:46.716Z,101690.97
2023-05-07T01:56:13.304Z,101694.84
2023-05-07T01:58:39.811Z,101701.09
2023-05-07T02:01:06.333Z,101695.84
2023-05-07T02:03:33.061Z,101702.06
2023-05-07T02:05:59.698Z,101688.75
2023-05-07T02:08:26.235Z,101691.63
2023-05-07T02:10:52.938Z,101695.16
2023-05-07T02:13:20.871Z,101695.28
2023-05-07T02:15:51.278Z,101691.75
2023-05-07T02:18:18.081Z,101693.78
2023-05-07T02:20:44.666Z,101691.94
2023-05-07T02:23:11.191Z,101687.53
2023-05-07T02:25:37.821Z,101694.78
2023-05-07T02:28:04.396Z,101695.78
2023-05-07T02:30:30.920Z,101700.31
2023-05-07T02:32:57.527Z,101699.66
2023-05-07T02:35:25.798Z,101701.34
2023-05-07T02:37:52.391Z,101701.50
2023-05-07T02:40:19.079Z,101701.50
2023-05-07T02:42:45.747Z,101704.19
2023-05-07T02:45:12.419Z,101698.94
2023-05-07T02:47:38.940Z,101701.63
2023-05-07T02:50:06.116Z,101697.25
2023-05-07T02:52:32.760Z,101698.28
2023-05-07T02:54:59.275Z,101698.28
2023-05-07T02:57:25.851Z,101698.41
2023-05-07T02:59:53.021Z,101693.00
2023-05-07T03:02:19.632Z,101694.88
2023-05-07T03:04:46.136Z,101693.19
2023-05-07T03:07:12.631Z,101694.19
2023-05-07T03:09:39.158Z,101698.72
2023-05-07T03:12:05.837Z,101702.41
2023-05-07T03:14:32.380Z,101697.88
2023-05-07T03:16:58.908Z,101695.34
2023-05-07T03:19:25.442Z,101700.03
2023-05-07T03:21:52.103Z,101699.03
2023-05-07T03:24:18.652Z,101693.66
2023-05-07T03:26:45.319Z,101693.94
2023-05-07T03:29:11.885Z,101693.09
2023-05-07T03:31:38.629Z,101686.03
2023-05-07T03:34:05.153Z,101690.53
2023-05-07T03:36:31.645Z,101690.72
2023-05-07T03:38:58.190Z,101694.25
2023-05-07T03:41:24.781Z,101693.41
2023-05-07T03:43:51.264Z,101694.25
2023-05-07T03:46:17.815Z,101686.34
2023-05-07T03:48:44.348Z,101690.03
2023-05-07T03:51:11.208Z,101684.66
2023-05-07T03:53:38.054Z,101688.31
2023-05-07T03:56:04.865Z,101686.63
2023-05-07T03:58:31.349Z,101688.31
2023-05-07T04:00:57.875Z,101696.56
2023-05-07T04:03:24.504Z,101701.13
2023-05-07T04:05:51.100Z,101708.38
2023-05-07T04:08:17.615Z,101712.94
2023-05-07T04:10:44.191Z,101713.78
2023-05-07T04:13:10.828Z,101719.28
2023-05-07T04:15:37.487Z,101712.22
2023-05-07T04:18:04.127Z,101709.53
2023-05-07T04:20:30.686Z,101703.28
2023-05-07T04:22:57.214Z,101704.25
2023-05-07T04:25:27.750Z,101713.19
2023-05-07T04:27:55.465Z,101717.75
2023-05-07T04:30:23.860Z,101716.91
2023-05-07T04:32:50.416Z,101714.19
2023-05-07T04:35:17.187Z,101717.88
2023-05-07T04:37:43.743Z,101721.41
2023-05-07T04:40:11.134Z,101723.28
2023-05-07T04:42:37.896Z,101717.88
2023-05-07T04:45:05.939Z,101717.03
2023-05-07T04:47:32.707Z,101723.28
2023-05-07T04:49:59.283Z,101722.44
2023-05-07T04:52:27.336Z,101717.88
2023-05-07T04:54:54.236Z,101717.03
2023-05-07T04:57:21.006Z,101717.88
2023-05-07T04:59:47.599Z,101723.28
2023-05-07T05:02:14.134Z,101727.81
2023-05-07T05:04:40.711Z,101723.28
2023-05-07T05:07:07.237Z,101724.28
2023-05-07T05:09:33.817Z,101732.19
2023-05-07T05:12:00.729Z,101731.38
2023-05-07T05:14:27.286Z,101723.28
2023-05-07T05:16:53.860Z,101725.13
2023-05-07T05:19:20.465Z,101725.13
2023-05-07T05:21:47.123Z,101727.81
2023-05-07T05:24:13.709Z,101734.91
2023-05-07T05:26:40.317Z,101727.81
2023-05-07T05:29:07.379Z,101739.44
2023-05-07T05:31:34.677Z,101739.44
2023-05-07T05:34:01.340Z,101742.16
2023-05-07T05:36:27.923Z,101746.69
2023-05-07T05:38:54.446Z,101744.00
2023-05-07T05:41:21.612Z,101752.09
2023-05-07T05:43:48.155Z,101758.50
2023-05-07T05:46:14.792Z,101761.03
2023-05-07T05:48:41.568Z,101755.63
2023-05-07T05:51:08.090Z,101753.94
2023-05-07T05:53:34.621Z,101762.88
2023-05-07T05:56:01.208Z,101754.94
2023-05-07T05:58:28.062Z,101765.75
2023-05-07T06:00:54.665Z,101758.50
2023-05-07T06:03:21.306Z,101771.13
2023-05-07T06:05:47.929Z,101760.47
2023-05-07T06:08:14.484Z,101778.38
2023-05-07T06:10:41.234Z,101776.53
2023-05-07T06:13:07.976Z,101774.97
2023-05-07T06:15:34.548Z,101772.13
2023-05-07T06:18:01.115Z,101780.34
2023-05-07T06:20:27.655Z,101790.13
2023-05-07T06:22:54.252Z,101791.84
2023-05-07T06:25:21.032Z,101793.84
2023-05-07T06:27:47.824Z,101797.25
2023-05-07T06:30:14.367Z,101799.09
2023-05-07T06:32:42.031Z,101793.72
2023-05-07T06:35:09.118Z,101800.06
2023-05-07T06:37:35.621Z,101796.53
2023-05-07T06:40:02.193Z,101797.25
2023-05-07T06:42:28.727Z,101801.81
2023-05-07T06:44:55.996Z,101807.19
2023-05-07T06:47:22.623Z,101801.81
2023-05-07T06:49:49.201Z,101800.06
2023-05-07T06:52:15.683Z,101803.50
2023-05-07T06:54:42.272Z,101801.94
2023-05-07T06:57:08.833Z,101801.81
2023-05-07T06:59:35.482Z,101799.09
2023-05-07T07:02:02.107Z,101803.63
2023-05-07T07:04:29.301Z,101807.19
2023-05-07T07:06:57.658Z,101806.19
2023-05-07T07:09:24.293Z,101807.03
2023-05-07T07:11:50.868Z,101803.50
2023-05-07T07:14:17.392Z,101805.19
2023-05-07T07:16:43.911Z,101806.88
2023-05-07T07:19:10.467Z,101803.19
2023-05-07T07:21:37.090Z,101798.66
2023-05-07T07:24:03.796Z,101802.19
2023-05-07T07:26:30.444Z,101797.66
2023-05-07T07:28:56.948Z,101803.91
2023-05-07T07:31:23.520Z,101804.75
2023-05-07T07:33:53.067Z,101804.63
2023-05-07T07:36:19.993Z,101807.31
2023-05-07T07:38:46.532Z,101807.16
2023-05-07T07:41:13.035Z,101801.59
2023-05-07T07:43:39.623Z,101797.91
2023-05-07T07:46:06.375Z,101799.59
2023-05-07T07:48:33.006Z,101802.97
2023-05-07T07:50:59.556Z,101794.75
2023-05-07T07:53:26.337Z,101795.59
2023-05-07T07:55:54.395Z,101800.69
2023-05-07T07:58:25.791Z,101792.44
2023-05-07T08:00:52.382Z,101795.81
2023-05-07T08:03:18.986Z,101797.53
2023-05-07T08:05:45.835Z,101800.91
2023-05-07T08:08:12.373Z,101809.72
2023-05-07T08:10:40.153Z,101800.63
2023-05-07T08:13:07.151Z,101804.88
2023-05-07T08:15:33.718Z,101800.31
2023-05-07T08:18:01.276Z,101797.44
2023-05-07T08:20:28.214Z,101803.69
2023-05-07T08:22:54.774Z,101806.25
2023-05-07T08:25:21.354Z,101799.84
2023-05-07T08:27:47.900Z,101803.22
2023-05-07T08:30:15.050Z,101800.94
2023-05-07T08:32:41.664Z,101798.78
2023-05-07T08:35:08.630Z,101811.09
2023-05-07T08:37:35.261Z,101805.22
2023-05-07T08:40:01.908Z,101808.47
2023-05-07T08:42:30.387Z,101813.38
2023-05-07T08:44:58.576Z,101819.50
2023-05-07T08:47:30.920Z,101821.03
2023-05-07T08:49:57.510Z,101810.75
2023-05-07T08:52:24.310Z,101823.28
2023-05-07T08:54:51.121Z,101813.16
2023-05-07T08:57:17.676Z,101826.50
2023-05-07T08:59:44.201Z,101822.81
2023-05-07T09:02:12.432Z,101828.88
2023-05-07T09:04:39.131Z,101831.56
2023-05-07T09:07:06.438Z,101832.28
2023-05-07T09:09:36.450Z,101826.56
2023-05-07T09:12:04.672Z,101831.84
2023-05-07T09:14:34.515Z,101825.28
2023-05-07T09:17:01.252Z,101816.00
2023-05-07T09:19:28.464Z,101822.13
2023-05-07T09:22:06.396Z,101819.09
2023-05-07T09:24:36.055Z,101827.88
2023-05-07T09:27:03.454Z,101824.03
2023-05-07T09:29:31.226Z,101822.00
2023-05-07T09:31:57.803Z,101817.97
2023-05-07T09:34:24.368Z,101819.53
2023-05-07T09:36:51.122Z,101827.16
2023-05-07T09:39:17.714Z,101820.59
2023-05-07T09:41:46.258Z,101823.78
2023-05-07T09:44:14.829Z,101830.44
2023-05-07T09:46:45.578Z,101833.19
2023-05-07T09:49:22.883Z,101832.72
2023-05-07T09:51:51.267Z,101829.38
2023-05-07T09:54:18.894Z,101828.88
2023-05-07T09:56:53.190Z,101824.00
2023-05-07T09:59:21.265Z,101824.69
2023-05-07T10:01:47.800Z,101827.91
2023-05-07T10:04:15.640Z,101823.22
2023-05-07T10:06:43.610Z,101827.31
2023-05-07T10:09:10.814Z,101825.09
2023-05-07T10:11:37.891Z,101826.47
2023-05-07T10:14:06.834Z,101833.59
2023-05-07T10:16:37.253Z,101828.19
2023-05-07T10:19:05.619Z,101834.44
2023-05-07T10:21:36.725Z,101828.00
2023-05-07T10:24:15.689Z,101829.56
2023-05-07T10:26:46.483Z,101828.22
2023-05-07T10:29:30.850Z,101836.16
2023-05-07T10:32:03.171Z,101831.28
2023-05-07T10:34:36.878Z,101836.19
2023-05-07T10:37:04.772Z,101834.84
2023-05-07T10:39:31.823Z,101834.72
2023-05-07T10:42:07.920Z,101837.06
2023-05-07T10:44:34.497Z,101843.84
2023-05-07T10:47:09.852Z,101845.38
2023-05-07T10:49:38.243Z,101828.97
2023-05-07T10:52:19.785Z,101833.53
2023-05-07T10:54:47.243Z,101833.03
2023-05-07T10:57:36.587Z,101834.75
2023-05-07T11:00:04.608Z,101839.81
2023-05-07T11:03:01.982Z,101836.13
2023-05-07T11:05:31.392Z,101845.75
2023-05-07T11:08:02.147Z,101846.59
2023-05-07T11:10:52.392Z,101845.22
2023-05-07T11:13:20.143Z,101836.13
2023-05-07T11:15:48.387Z,101840.81
2023-05-07T11:18:18.942Z,101837.28
2023-05-07T11:20:53.490Z,101841.00
2023-05-07T11:23:35.673Z,101846.75
2023-05-07T11:26:10.174Z,101841.16
2023-05-07T11:28:41.411Z,101839.47
2023-05-07T11:31:09.128Z,101842.34
2023-05-07T11:33:37.159Z,101837.47
2023-05-07T11:36:05.542Z,101841.84
2023-05-07T11:38:36.100Z,101844.22
2023-05-07T11:41:03.555Z,101840.19
2023-05-07T11:43:30.097Z,101840.53
2023-05-07T11:46:12.373Z,101833.44
2023-05-07T11:48:40.054Z,101837.63
2023-05-07T11:51:09.620Z,101841.19
2023-05-07T11:53:38.792Z,101834.94
2023-05-07T11:56:13.427Z,101843.91
2023-05-07T11:58:41.255Z,101842.91
2023-05-07T12:01:12.307Z,101842.22
2023-05-07T12:03:45.850Z,101843.91
2023-05-07T12:06:13.458Z,101840.19
2023-05-07T12:08:41.885Z,101835.97
2023-05-07T12:11:10.721Z,101834.66
2023-05-07T12:13:37.396Z,101834.31
2023-05-07T12:16:05.440Z,101845.66
2023-05-07T12:18:32.245Z,101838.22
2023-05-07T12:21:00.160Z,101840.06
2023-05-07T12:23:26.919Z,101837.69
2023-05-07T12:25:53.445Z,101836.84
2023-05-07T12:28:20.585Z,101838.91
2023-05-07T12:30:49.217Z,101841.75
2023-05-07T12:33:20.228Z,101831.75
2023-05-07T12:35:48.835Z,101837.88
2023-05-07T12:38:18.313Z,101843.63
2023-05-07T12:40:46.319Z,101836.34
2023-05-07T12:43:26.809Z,101835.16
2023-05-07T12:45:57.048Z,101842.97
2023-05-07T12:48:24.825Z,101838.91
2023-05-07T12:50:52.416Z,101834.16
2023-05-07T12:53:22.316Z,101842.97
2023-05-07T12:55:51.960Z,101841.94
2023-05-07T12:58:26.005Z,101849.75
2023-05-07T13:00:53.306Z,101852.44
2023-05-07T13:03:30.734Z,101853.13
2023-05-07T13:05:59.872Z,101854.84
2023-05-07T13:08:33.108Z,101852.97
2023-05-07T13:11:05.552Z,101858.19
2023-05-07T13:13:33.354Z,101849.06
2023-05-07T13:16:01.466Z,101856.19
2023-05-07T13:18:30.177Z,101858.72
2023-05-07T13:20:57.108Z,101859.56
2023-05-07T13:23:23.810Z,101851.44
2023-05-07T13:25:51.508Z,101856.66
2023-05-07T13:28:18.142Z,101852.13
2023-05-07T13:30:44.711Z,101858.53
2023-05-07T13:33:11.258Z,101865.66
2023-05-07T13:35:37.923Z,101852.28
2023-05-07T13:38:04.766Z,101853.97
2023-05-07T13:40:31.771Z,101857.53
2023-05-07T13:43:00.681Z,101859.38
2023-05-07T13:45:27.977Z,101856.66
2023-05-07T13:47:54.624Z,101854.97
2023-05-07T13:50:21.222Z,101862.09
2023-05-07T13:52:51.521Z,101856.84
2023-05-07T13:55:19.241Z,101863.09
2023-05-07T13:57:46.392Z,101856.00
2023-05-07T14:00:14.091Z,101858.72
2023-05-07T14:02:41.484Z,101862.44
2023-05-07T14:05:09.891Z,101863.44
2023-05-07T14:07:36.907Z,101867.88
2023-05-07T14:10:03.967Z,101868.84
2023-05-07T14:12:30.709Z,101864.47
2023-05-07T14:14:57.510Z,101870.72
2023-05-07T14:17:26.424Z,101883.41
2023-05-07T14:19:55.268Z,101892.38
2023-05-07T14:22:23.613Z,101906.94
2023-05-07T14:25:05.368Z,101910.81
2023-05-07T14:27:33.517Z,101923.50
2023-05-07T14:30:00.291Z,101925.38
2023-05-07T14:32:26.954Z,101931.63
2023-05-07T14:34:53.493Z,101938.06
2023-05-07T14:37:21.207Z,101946.19
2023-05-07T14:39:50.718Z,101948.91
2023-05-07T14:42:18.219Z,101955.16
2023-05-07T14:44:46.416Z,101947.22
2023-05-07T14:47:13.722Z,101955.34
2023-05-07T14:49:41.535Z,101949.94
2023-05-07T14:52:09.132Z,101951.78
2023-05-07T14:54:39.031Z,101948.38
2023-05-07T14:57:06.886Z,101958.38
2023-05-07T14:59:33.708Z,101960.22
2023-05-07T15:02:05.405Z,101960.38
2023-05-07T15:04:33.642Z,101965.78
2023-05-07T15:07:00.980Z,101974.94
2023-05-07T15:09:27.685Z,101983.06
2023-05-07T15:11:54.251Z,101980.53
2023-05-07T15:14:22.734Z,101981.38
2023-05-07T15:16:49.928Z,101969.84
2023-05-07T15:19:17.952Z,101976.13
2023-05-07T15:21:44.708Z,101969.84
2023-05-07T15:24:11.409Z,101973.56
2023-05-07T15:26:37.922Z,101978.97
2023-05-07T15:29:09.122Z,101989.81
2023-05-07T15:31:35.956Z,101981.69
2023-05-07T15:34:02.559Z,101972.72
2023-05-07T15:36:29.141Z,101971.88
2023-05-07T15:38:55.742Z,101974.59
2023-05-07T15:41:22.376Z,101969.00
2023-05-07T15:43:51.202Z,101966.47
2023-05-07T15:46:24.467Z,101960.03
2023-05-07T15:48:54.918Z,101956.47
2023-05-07T15:51:22.750Z,101960.72
2023-05-07T15:53:50.005Z,101958.88
2023-05-07T15:56:16.524Z,101951.59
2023-05-07T15:58:43.072Z,101957.84
2023-05-07T16:01:09.707Z,101954.13
2023-05-07T16:03:36.729Z,101965.78
2023-05-07T16:06:03.514Z,101964.94
2023-05-07T16:08:30.140Z,101965.78
2023-05-07T16:10:56.720Z,101967.66
2023-05-07T16:13:24.874Z,101960.38
2023-05-07T16:15:58.401Z,101965.78
2023-05-07T16:18:25.204Z,101969.38
2023-05-07T16:20:52.022Z,101957.53
2023-05-07T16:23:19.237Z,101965.66
2023-05-07T16:25:45.883Z,101969.19
2023-05-07T16:28:12.568Z,101964.63
2023-05-07T16:30:39.142Z,101962.09
2023-05-07T16:33:05.790Z,101963.97
2023-05-07T16:35:32.391Z,101966.66
2023-05-07T16:37:59.054Z,101965.78
2023-05-07T16:40:25.719Z,101962.09
2023-05-07T16:42:54.790Z,101960.38
2023-05-07T16:45:24.948Z,101962.94
2023-05-07T16:47:51.648Z,101961.25
2023-05-07T16:50:18.367Z,101963.97
2023-05-07T16:52:45.078Z,101969.38
2023-05-07T16:55:11.954Z,101965.78
2023-05-07T16:57:38.802Z,101969.38
2023-05-07T17:00:07.463Z,101970.53
2023-05-07T17:02:35.683Z,101964.09
2023-05-07T17:05:02.450Z,101965.97
2023-05-07T17:07:28.989Z,101964.09
2023-05-07T17:09:55.564Z,101966.81
2023-05-07T17:12:22.752Z,101965.13
2023-05-07T17:14:49.518Z,101963.75
2023-05-07T17:17:16.196Z,101964.25
2023-05-07T17:19:42.767Z,101965.41
2023-05-07T17:22:09.334Z,101964.88
2023-05-07T17:24:36.515Z,101967.75
2023-05-07T17:27:03.100Z,101972.47
2023-05-07T17:29:30.941Z,101976.19
2023-05-07T17:31:57.538Z,101976.50
2023-05-07T17:34:24.260Z,101972.09
2023-05-07T17:36:50.866Z,101977.84
2023-05-07T17:39:17.494Z,101979.69
2023-05-07T17:41:44.024Z,101989.69
2023-05-07T17:44:10.565Z,101990.69
2023-05-07T17:46:37.138Z,101986.31
2023-05-07T17:49:03.769Z,101986.31
2023-05-07T17:51:36.087Z,101985.59
2023-05-07T17:54:09.188Z,101989.16
2023-05-07T17:56:37.164Z,101989.16
2023-05-07T17:59:03.715Z,101982.06
2023-05-07T18:01:30.934Z,101984.94
2023-05-07T18:03:57.694Z,101991.34
2023-05-07T18:06:24.307Z,101992.34
2023-05-07T18:08:50.989Z,102001.50
2023-05-07T18:11:17.692Z,102002.50
2023-05-07T18:13:44.308Z,102003.34
2023-05-07T18:16:10.996Z,102006.72
2023-05-07T18:18:37.693Z,102006.72
2023-05-07T18:21:04.655Z,102016.53
2023-05-07T18:23:31.248Z,102019.41
2023-05-07T18:25:57.798Z,102019.72
2023-05-07T18:28:24.386Z,102032.41
2023-05-07T18:30:50.964Z,102030.72
2023-05-07T18:33:17.648Z,102029.03
2023-05-07T18:35:44.449Z,102037.28
2023-05-07T18:38:11.122Z,102041.84
2023-05-07T18:40:37.887Z,102043.72
2023-05-07T18:43:07.033Z,102042.03
2023-05-07T18:45:34.343Z,102048.44
2023-05-07T18:48:01.578Z,102035.78
2023-05-07T18:50:28.125Z,102034.94
2023-05-07T18:52:54.728Z,102043.88
2023-05-07T18:55:22.123Z,102042.88
2023-05-07T18:57:49.506Z,102043.03
2023-05-07T19:00:16.506Z,102048.44
2023-05-07T19:02:43.100Z,102045.75
2023-05-07T19:05:09.757Z,102051.16
2023-05-07T19:07:36.453Z,102051.84
2023-05-07T19:10:06.006Z,102056.41
2023-05-07T19:12:32.869Z,102051.66
2023-05-07T19:14:59.402Z,102052.53
2023-05-07T19:17:25.979Z,102053.53
2023-05-07T19:19:52.526Z,102061.81
2023-05-07T19:22:19.104Z,102051.00
2023-05-07T19:24:45.687Z,102051.00
2023-05-07T19:27:12.277Z,102049.13
2023-05-07T19:29:39.792Z,102056.22
2023-05-07T19:32:06.451Z,102058.09
2023-05-07T19:34:33.111Z,102059.94
2023-05-07T19:36:59.655Z,102068.06
2023-05-07T19:39:26.234Z,102072.63
2023-05-07T19:41:52.768Z,102071.63
2023-05-07T19:44:19.333Z,102077.19
2023-05-07T19:46:47.738Z,102078.22
2023-05-07T19:49:14.469Z,102078.34
2023-05-07T19:51:41.294Z,102080.22
2023-05-07T19:54:07.826Z,102086.63
2023-05-07T19:56:34.414Z,102084.94
2023-05-07T19:59:01.054Z,102092.19
2023-05-07T20:01:29.237Z,102102.16
2023-05-07T20:03:56.280Z,102104.03
2023-05-07T20:06:23.496Z,102101.50
2023-05-07T20:08:50.768Z,102098.91
2023-05-07T20:11:17.580Z,102107.22
2023-05-07T20:13:44.109Z,102113.63
2023-05-07T20:16:11.009Z,102115.63
2023-05-07T20:18:37.654Z,102121.22
2023-05-07T20:21:04.987Z,102115.94
2023-05-07T20:23:31.624Z,102116.09
2023-05-07T20:25:59.097Z,102111.84
2023-05-07T20:28:25.780Z,102116.56
2023-05-07T20:30:52.454Z,102125.84
2023-05-07T20:33:19.083Z,102127.88
2023-05-07T20:35:45.642Z,102121.91
2023-05-07T20:38:12.246Z,102117.66
2023-05-07T20:40:38.943Z,102123.22
2023-05-07T20:43:06.497Z,102122.53
2023-05-07T20:45:33.309Z,102116.44
2023-05-07T20:48:01.138Z,102122.84
2023-05-07T20:50:27.851Z,102120.41
2023-05-07T20:52:54.420Z,102119.72
2023-05-07T20:55:21.091Z,102126.13
2023-05-07T20:57:47.707Z,102121.72
2023-05-07T21:00:15.839Z,102120.88
2023-05-07T21:02:43.625Z,102125.59
2023-05-07T21:05:10.174Z,102127.44
2023-05-07T21:07:36.766Z,102127.59
2023-05-07T21:10:03.517Z,102130.31
2023-05-07T21:12:30.052Z,102139.41
2023-05-07T21:14:56.876Z,102138.56
2023-05-07T21:17:23.405Z,102140.56
2023-05-07T21:19:50.096Z,102147.69
2023-05-07T21:22:16.589Z,102145.97
2023-05-07T21:24:43.200Z,102155.09
2023-05-07T21:27:09.816Z,102156.94
2023-05-07T21:29:36.438Z,102163.34
2023-05-07T21:32:03.785Z,102163.50
2023-05-07T21:34:30.382Z,102168.91
2023-05-07T21:36:57.062Z,102164.53
2023-05-07T21:39:24.752Z,102165.38
2023-05-07T21:41:51.294Z,102171.91
2023-05-07T21:44:17.880Z,102163.81
2023-05-07T21:46:44.601Z,102170.22
2023-05-07T21:49:11.923Z,102165.84
2023-05-07T21:51:38.504Z,102165.28
2023-05-07T21:54:05.113Z,102159.03
2023-05-07T21:56:31.610Z,102152.91
2023-05-07T21:58:58.192Z,102156.63
2023-05-07T22:01:24.911Z,102160.47
2023-05-07T22:03:51.996Z,102166.03
2023-05-07T22:06:21.708Z,102162.63
2023-05-07T22:08:51.467Z,102168.03
2023-05-07T22:11:18.197Z,102166.50
2023-05-07T22:13:44.776Z,102168.31
2023-05-07T22:16:11.337Z,102164.94
2023-05-07T22:18:37.893Z,102169.50
2023-05-07T22:21:04.616Z,102163.38
2023-05-07T22:23:31.217Z,102167.09
2023-05-07T22:25:58.285Z,102163.53
2023-05-07T22:28:24.881Z,102166.25
2023-05-07T22:30:51.377Z,102167.25
2023-05-07T22:33:18.017Z,102169.22
2023-05-07T22:35:44.556Z,102171.09
2023-05-07T22:38:11.175Z,102171.25
2023-05-07T22:40:37.690Z,102172.22
2023-05-07T22:43:04.231Z,102170.41
2023-05-07T22:45:30.827Z,102172.38
2023-05-07T22:47:57.440Z,102168.84
2023-05-07T22:50:24.142Z,102162.72
2023-05-07T22:52:50.749Z,102166.44
2023-05-07T22:55:17.519Z,102166.44
2023-05-07T22:57:44.117Z,102166.72
2023-05-07T23:00:11.974Z,102170.44
2023-05-07T23:02:38.937Z,102165.19
2023-05-07T23:05:05.723Z,102167.06
2023-05-07T23:07:32.258Z,102162.78
2023-05-07T23:09:59.106Z,102166.50
2023-05-07T23:12:25.741Z,102166.63
2023-05-07T23:14:52.303Z,102161.38
2023-05-07T23:17:18.822Z,102173.31
2023-05-07T23:19:45.372Z,102167.06
2023-05-07T23:22:12.312Z,102168.94
2023-05-07T23:24:39.246Z,102159.25
2023-05-07T23:27:06.655Z,102157.56
2023-05-07T23:29:33.462Z,102164.81
2023-05-07T23:32:00.714Z,102162.25
2023-05-07T23:34:27.489Z,102175.88
2023-05-07T23:36:54.240Z,102169.63
2023-05-07T23:39:20.948Z,102182.28
2023-05-07T23:41:47.527Z,102179.75
2023-05-07T23:44:16.494Z,102169.94
2023-05-07T23:46:44.434Z,102174.47
2023-05-07T23:49:11.292Z,102177.34
2023-05-07T23:51:37.994Z,102175.66
2023-05-07T23:54:05.002Z,102175.78
2023-05-07T23:56:31.625Z,102176.78
2023-05-07T23:58:58.212Z,102178.63
